sensor_id;sensor_type;location;lat;lon;timestamp;temperature;humidity
22742;DHT22;11538;48.884;8.696;2022-10-31T00:01:33;13.30;99.90
22742;DHT22;11538;48.884;8.696;2022-10-31T00:04:02;13.30;99.90
22742;DHT22;11538;48.884;8.696;2022-10-31T00:06:29;13.30;99.90
22742;DHT22;11538;48.884;8.696;2022-10-31T00:08:58;13.20;99.90
22742;DHT22;11538;48.884;8.696;2022-10-31T00:11:27;13.20;99.90
22742;DHT22;11538;48.884;8.696;2022-10-31T00:13:54;13.20;99.90
22742;DHT22;11538;48.884;8.696;2022-10-31T00:16:24;13.10;99.90
22742;DHT22;11538;48.884;8.696;2022-10-31T00:18:53;13.10;99.90
22742;DHT22;11538;48.884;8.696;2022-10-31T00:21:22;13.10;99.90
22742;DHT22;11538;48.884;8.696;2022-10-31T00:23:50;13.10;99.90
22742;DHT22;11538;48.884;8.696;2022-10-31T00:26:17;13.00;99.90
22742;DHT22;11538;48.884;8.696;2022-10-31T00:28:44;13.00;99.90
22742;DHT22;11538;48.884;8.696;2022-10-31T00:31:13;13.00;99.90
22742;DHT22;11538;48.884;8.696;2022-10-31T00:33:41;12.90;99.90
22742;DHT22;11538;48.884;8.696;2022-10-31T00:36:12;12.90;99.90
22742;DHT22;11538;48.884;8.696;2022-10-31T00:38:45;12.90;99.90
22742;DHT22;11538;48.884;8.696;2022-10-31T00:41:14;12.80;99.90
22742;DHT22;11538;48.884;8.696;2022-10-31T00:43:43;12.90;99.90
22742;DHT22;11538;48.884;8.696;2022-10-31T00:46:11;12.90;99.90
22742;DHT22;11538;48.884;8.696;2022-10-31T00:48:39;12.80;99.90
22742;DHT22;11538;48.884;8.696;2022-10-31T00:51:06;12.80;99.90
22742;DHT22;11538;48.884;8.696;2022-10-31T00:53:33;12.80;99.90
22742;DHT22;11538;48.884;8.696;2022-10-31T00:56:00;12.90;99.90
22742;DHT22;11538;48.884;8.696;2022-10-31T00:58:27;12.90;99.90
22742;DHT22;11538;48.884;8.696;2022-10-31T01:00:54;12.90;99.90
22742;DHT22;11538;48.884;8.696;2022-10-31T01:03:30;12.90;99.90
22742;DHT22;11538;48.884;8.696;2022-10-31T01:06:09;12.90;99.90
22742;DHT22;11538;48.884;8.696;2022-10-31T01:08:38;12.90;99.90
22742;DHT22;11538;48.884;8.696;2022-10-31T01:11:22;12.90;99.90
22742;DHT22;11538;48.884;8.696;2022-10-31T01:13:50;12.90;99.90
22742;DHT22;11538;48.884;8.696;2022-10-31T01:16:20;12.90;99.90
22742;DHT22;11538;48.884;8.696;2022-10-31T01:18:49;13.00;99.90
22742;DHT22;11538;48.884;8.696;2022-10-31T01:21:19;12.90;99.90
22742;DHT22;11538;48.884;8.696;2022-10-31T01:23:50;13.00;99.90
22742;DHT22;11538;48.884;8.696;2022-10-31T01:26:27;12.90;99.90
22742;DHT22;11538;48.884;8.696;2022-10-31T01:28:59;12.90;99.90
22742;DHT22;11538;48.884;8.696;2022-10-31T01:31:30;12.90;99.90
22742;DHT22;11538;48.884;8.696;2022-10-31T01:34:00;12.90;99.90
22742;DHT22;11538;48.884;8.696;2022-10-31T01:36:34;12.90;99.90
22742;DHT22;11538;48.884;8.696;2022-10-31T01:39:05;12.90;99.90
22742;DHT22;11538;48.884;8.696;2022-10-31T01:41:44;12.90;99.90
22742;DHT22;11538;48.884;8.696;2022-10-31T01:46:44;13.00;99.90
22742;DHT22;11538;48.884;8.696;2022-10-31T01:52:32;13.00;99.90
22742;DHT22;11538;48.884;8.696;2022-10-31T01:55:26;12.90;99.90
22742;DHT22;11538;48.884;8.696;2022-10-31T01:58:02;12.90;99.90
22742;DHT22;11538;48.884;8.696;2022-10-31T02:00:33;12.90;99.90
22742;DHT22;11538;48.884;8.696;2022-10-31T02:03:01;12.90;99.90
22742;DHT22;11538;48.884;8.696;2022-10-31T02:05:29;12.90;99.90
22742;DHT22;11538;48.884;8.696;2022-10-31T02:08:04;12.80;99.90
22742;DHT22;11538;48.884;8.696;2022-10-31T02:10:36;12.80;99.90
22742;DHT22;11538;48.884;8.696;2022-10-31T02:13:06;12.80;99.90
22742;DHT22;11538;48.884;8.696;2022-10-31T02:15:36;12.80;99.90
22742;DHT22;11538;48.884;8.696;2022-10-31T02:18:05;12.90;99.90
22742;DHT22;11538;48.884;8.696;2022-10-31T02:20:41;12.90;99.90
22742;DHT22;11538;48.884;8.696;2022-10-31T02:26:44;12.80;99.90
22742;DHT22;11538;48.884;8.696;2022-10-31T02:38:05;12.80;99.90
22742;DHT22;11538;48.884;8.696;2022-10-31T02:44:26;12.80;99.90
22742;DHT22;11538;48.884;8.696;2022-10-31T02:52:19;12.80;99.90
22742;DHT22;11538;48.884;8.696;2022-10-31T02:54:48;12.80;99.90
22742;DHT22;11538;48.884;8.696;2022-10-31T02:57:19;12.80;99.90
22742;DHT22;11538;48.884;8.696;2022-10-31T02:59:53;12.70;99.90
22742;DHT22;11538;48.884;8.696;2022-10-31T03:05:55;12.70;99.90
22742;DHT22;11538;48.884;8.696;2022-10-31T03:08:54;12.80;99.90
22742;DHT22;11538;48.884;8.696;2022-10-31T03:11:32;12.80;99.90
22742;DHT22;11538;48.884;8.696;2022-10-31T03:14:15;12.80;99.90
22742;DHT22;11538;48.884;8.696;2022-10-31T03:16:52;12.80;99.90
22742;DHT22;11538;48.884;8.696;2022-10-31T03:19:30;12.70;99.90
22742;DHT22;11538;48.884;8.696;2022-10-31T03:22:21;12.70;99.90
22742;DHT22;11538;48.884;8.696;2022-10-31T03:24:52;12.70;99.90
22742;DHT22;11538;48.884;8.696;2022-10-31T03:27:25;12.70;99.90
22742;DHT22;11538;48.884;8.696;2022-10-31T03:30:20;12.60;99.90
22742;DHT22;11538;48.884;8.696;2022-10-31T03:32:53;12.60;99.90
22742;DHT22;11538;48.884;8.696;2022-10-31T03:35:25;12.60;99.90
22742;DHT22;11538;48.884;8.696;2022-10-31T03:37:55;12.60;99.90
22742;DHT22;11538;48.884;8.696;2022-10-31T03:40:24;12.50;99.90
22742;DHT22;11538;48.884;8.696;2022-10-31T03:42:59;12.50;99.90
22742;DHT22;11538;48.884;8.696;2022-10-31T03:45:32;12.50;99.90
22742;DHT22;11538;48.884;8.696;2022-10-31T03:48:03;12.50;99.90
22742;DHT22;11538;48.884;8.696;2022-10-31T03:50:38;12.50;99.90
22742;DHT22;11538;48.884;8.696;2022-10-31T03:53:18;12.50;99.90
22742;DHT22;11538;48.884;8.696;2022-10-31T03:55:57;12.50;99.90
22742;DHT22;11538;48.884;8.696;2022-10-31T03:58:35;12.50;99.90
22742;DHT22;11538;48.884;8.696;2022-10-31T04:01:09;12.40;99.90
22742;DHT22;11538;48.884;8.696;2022-10-31T04:03:42;12.50;99.90
22742;DHT22;11538;48.884;8.696;2022-10-31T04:06:13;12.50;99.90
22742;DHT22;11538;48.884;8.696;2022-10-31T04:08:50;12.40;99.90
22742;DHT22;11538;48.884;8.696;2022-10-31T04:11:23;12.40;99.90
22742;DHT22;11538;48.884;8.696;2022-10-31T04:13:55;12.40;99.90
22742;DHT22;11538;48.884;8.696;2022-10-31T04:16:25;12.40;99.90
22742;DHT22;11538;48.884;8.696;2022-10-31T04:18:53;12.40;99.90
22742;DHT22;11538;48.884;8.696;2022-10-31T04:21:26;12.40;99.90
22742;DHT22;11538;48.884;8.696;2022-10-31T04:23:55;12.40;99.90
22742;DHT22;11538;48.884;8.696;2022-10-31T04:26:22;12.40;99.90
22742;DHT22;11538;48.884;8.696;2022-10-31T04:28:49;12.40;99.90
22742;DHT22;11538;48.884;8.696;2022-10-31T04:31:16;12.40;99.90
22742;DHT22;11538;48.884;8.696;2022-10-31T04:33:43;12.40;99.90
22742;DHT22;11538;48.884;8.696;2022-10-31T04:36:11;12.40;99.90
22742;DHT22;11538;48.884;8.696;2022-10-31T04:38:37;12.40;99.90
22742;DHT22;11538;48.884;8.696;2022-10-31T04:41:04;12.40;99.90
22742;DHT22;11538;48.884;8.696;2022-10-31T04:43:31;12.40;99.90
22742;DHT22;11538;48.884;8.696;2022-10-31T04:45:58;12.40;99.90
22742;DHT22;11538;48.884;8.696;2022-10-31T04:48:25;12.40;99.90
22742;DHT22;11538;48.884;8.696;2022-10-31T04:50:52;12.40;99.90
22742;DHT22;11538;48.884;8.696;2022-10-31T04:53:19;12.40;99.90
22742;DHT22;11538;48.884;8.696;2022-10-31T04:55:46;12.40;99.90
22742;DHT22;11538;48.884;8.696;2022-10-31T04:58:13;12.40;99.90
22742;DHT22;11538;48.884;8.696;2022-10-31T05:00:40;12.40;99.90
22742;DHT22;11538;48.884;8.696;2022-10-31T05:03:07;12.30;99.90
22742;DHT22;11538;48.884;8.696;2022-10-31T05:05:33;12.30;99.90
22742;DHT22;11538;48.884;8.696;2022-10-31T05:08:00;12.30;99.90
22742;DHT22;11538;48.884;8.696;2022-10-31T05:10:29;12.20;99.90
22742;DHT22;11538;48.884;8.696;2022-10-31T05:12:59;12.20;99.90
22742;DHT22;11538;48.884;8.696;2022-10-31T05:15:28;12.20;99.90
22742;DHT22;11538;48.884;8.696;2022-10-31T05:17:55;12.20;99.90
22742;DHT22;11538;48.884;8.696;2022-10-31T05:20:26;12.20;99.90
22742;DHT22;11538;48.884;8.696;2022-10-31T05:22:55;12.10;99.90
22742;DHT22;11538;48.884;8.696;2022-10-31T05:25:26;12.10;99.90
22742;DHT22;11538;48.884;8.696;2022-10-31T05:27:55;12.10;99.90
22742;DHT22;11538;48.884;8.696;2022-10-31T05:30:29;12.10;99.90
22742;DHT22;11538;48.884;8.696;2022-10-31T05:32:57;12.10;99.90
22742;DHT22;11538;48.884;8.696;2022-10-31T05:35:28;12.10;99.90
22742;DHT22;11538;48.884;8.696;2022-10-31T05:37:56;12.10;99.90
22742;DHT22;11538;48.884;8.696;2022-10-31T05:40:25;12.10;99.90
22742;DHT22;11538;48.884;8.696;2022-10-31T05:42:54;12.10;99.90
22742;DHT22;11538;48.884;8.696;2022-10-31T05:45:23;12.10;99.90
22742;DHT22;11538;48.884;8.696;2022-10-31T05:47:57;12.00;99.90
22742;DHT22;11538;48.884;8.696;2022-10-31T05:50:28;12.00;99.90
22742;DHT22;11538;48.884;8.696;2022-10-31T05:53:07;12.00;99.90
22742;DHT22;11538;48.884;8.696;2022-10-31T05:55:34;12.00;99.90
22742;DHT22;11538;48.884;8.696;2022-10-31T05:58:01;12.00;99.90
22742;DHT22;11538;48.884;8.696;2022-10-31T06:00:28;11.90;99.90
22742;DHT22;11538;48.884;8.696;2022-10-31T06:03:03;12.00;99.90
22742;DHT22;11538;48.884;8.696;2022-10-31T06:05:32;12.00;99.90
22742;DHT22;11538;48.884;8.696;2022-10-31T06:07:59;12.00;99.90
22742;DHT22;11538;48.884;8.696;2022-10-31T06:10:28;12.00;99.90
22742;DHT22;11538;48.884;8.696;2022-10-31T06:12:56;12.00;99.90
22742;DHT22;11538;48.884;8.696;2022-10-31T06:15:24;12.00;99.90
22742;DHT22;11538;48.884;8.696;2022-10-31T06:18:11;12.00;99.90
22742;DHT22;11538;48.884;8.696;2022-10-31T06:20:38;12.00;99.90
22742;DHT22;11538;48.884;8.696;2022-10-31T06:23:05;12.00;99.90
22742;DHT22;11538;48.884;8.696;2022-10-31T06:25:33;12.00;99.90
22742;DHT22;11538;48.884;8.696;2022-10-31T06:28:00;12.00;99.90
22742;DHT22;11538;48.884;8.696;2022-10-31T06:30:27;12.00;99.90
22742;DHT22;11538;48.884;8.696;2022-10-31T06:32:53;12.00;99.90
22742;DHT22;11538;48.884;8.696;2022-10-31T06:35:21;12.00;99.90
22742;DHT22;11538;48.884;8.696;2022-10-31T06:37:55;12.00;99.90
22742;DHT22;11538;48.884;8.696;2022-10-31T06:40:22;12.00;99.90
22742;DHT22;11538;48.884;8.696;2022-10-31T06:43:00;12.00;99.90
22742;DHT22;11538;48.884;8.696;2022-10-31T06:45:27;12.00;99.90
22742;DHT22;11538;48.884;8.696;2022-10-31T06:47:55;12.00;99.90
22742;DHT22;11538;48.884;8.696;2022-10-31T06:50:43;12.10;99.90
22742;DHT22;11538;48.884;8.696;2022-10-31T06:53:10;12.10;99.90
22742;DHT22;11538;48.884;8.696;2022-10-31T06:55:37;12.10;99.90
22742;DHT22;11538;48.884;8.696;2022-10-31T06:58:04;12.10;99.90
22742;DHT22;11538;48.884;8.696;2022-10-31T07:00:32;12.10;99.90
22742;DHT22;11538;48.884;8.696;2022-10-31T07:03:02;12.20;99.90
22742;DHT22;11538;48.884;8.696;2022-10-31T07:05:31;12.20;99.90
22742;DHT22;11538;48.884;8.696;2022-10-31T07:08:08;12.20;99.90
22742;DHT22;11538;48.884;8.696;2022-10-31T07:10:38;12.20;99.90
22742;DHT22;11538;48.884;8.696;2022-10-31T07:13:14;12.20;99.90
22742;DHT22;11538;48.884;8.696;2022-10-31T07:15:42;12.20;99.90
22742;DHT22;11538;48.884;8.696;2022-10-31T07:18:11;12.20;99.90
22742;DHT22;11538;48.884;8.696;2022-10-31T07:20:38;12.20;99.90
22742;DHT22;11538;48.884;8.696;2022-10-31T07:23:05;12.20;99.90
22742;DHT22;11538;48.884;8.696;2022-10-31T07:25:32;12.30;99.90
22742;DHT22;11538;48.884;8.696;2022-10-31T07:27:59;12.30;99.90
22742;DHT22;11538;48.884;8.696;2022-10-31T07:30:27;12.30;99.90
22742;DHT22;11538;48.884;8.696;2022-10-31T07:32:54;12.30;99.90
22742;DHT22;11538;48.884;8.696;2022-10-31T07:35:24;12.40;99.90
22742;DHT22;11538;48.884;8.696;2022-10-31T07:37:53;12.40;99.90
22742;DHT22;11538;48.884;8.696;2022-10-31T07:40:22;12.40;99.90
22742;DHT22;11538;48.884;8.696;2022-10-31T07:42:51;12.50;99.90
22742;DHT22;11538;48.884;8.696;2022-10-31T07:45:20;12.50;99.90
22742;DHT22;11538;48.884;8.696;2022-10-31T07:47:51;12.60;99.90
22742;DHT22;11538;48.884;8.696;2022-10-31T07:50:21;12.60;99.90
22742;DHT22;11538;48.884;8.696;2022-10-31T07:53:07;12.70;99.90
22742;DHT22;11538;48.884;8.696;2022-10-31T07:55:35;12.80;99.90
22742;DHT22;11538;48.884;8.696;2022-10-31T07:58:08;12.80;99.90
22742;DHT22;11538;48.884;8.696;2022-10-31T08:00:37;12.90;99.90
22742;DHT22;11538;48.884;8.696;2022-10-31T08:03:08;13.00;99.90
22742;DHT22;11538;48.884;8.696;2022-10-31T08:05:45;13.10;99.90
22742;DHT22;11538;48.884;8.696;2022-10-31T08:08:13;13.10;99.90
22742;DHT22;11538;48.884;8.696;2022-10-31T08:10:41;13.20;99.90
22742;DHT22;11538;48.884;8.696;2022-10-31T08:13:10;13.30;99.90
22742;DHT22;11538;48.884;8.696;2022-10-31T08:15:39;13.50;99.90
22742;DHT22;11538;48.884;8.696;2022-10-31T08:18:14;13.60;99.90
22742;DHT22;11538;48.884;8.696;2022-10-31T08:20:42;13.70;99.90
22742;DHT22;11538;48.884;8.696;2022-10-31T08:23:11;13.90;99.90
22742;DHT22;11538;48.884;8.696;2022-10-31T08:25:38;14.00;99.90
22742;DHT22;11538;48.884;8.696;2022-10-31T08:28:06;14.10;99.90
22742;DHT22;11538;48.884;8.696;2022-10-31T08:30:36;14.20;99.90
22742;DHT22;11538;48.884;8.696;2022-10-31T08:33:11;14.30;99.90
22742;DHT22;11538;48.884;8.696;2022-10-31T08:35:40;14.30;99.90
22742;DHT22;11538;48.884;8.696;2022-10-31T08:38:09;14.40;99.90
22742;DHT22;11538;48.884;8.696;2022-10-31T08:40:37;14.50;99.90
22742;DHT22;11538;48.884;8.696;2022-10-31T08:43:16;14.60;99.90
22742;DHT22;11538;48.884;8.696;2022-10-31T08:45:47;14.70;99.90
22742;DHT22;11538;48.884;8.696;2022-10-31T08:48:16;14.80;99.90
22742;DHT22;11538;48.884;8.696;2022-10-31T08:50:44;14.90;99.90
22742;DHT22;11538;48.884;8.696;2022-10-31T08:53:17;15.00;99.90
22742;DHT22;11538;48.884;8.696;2022-10-31T08:55:46;15.00;99.90
22742;DHT22;11538;48.884;8.696;2022-10-31T08:58:15;15.20;99.90
22742;DHT22;11538;48.884;8.696;2022-10-31T09:00:48;15.20;99.90
22742;DHT22;11538;48.884;8.696;2022-10-31T09:03:20;15.40;99.90
22742;DHT22;11538;48.884;8.696;2022-10-31T09:05:49;15.50;99.90
22742;DHT22;11538;48.884;8.696;2022-10-31T09:08:17;15.60;99.90
22742;DHT22;11538;48.884;8.696;2022-10-31T09:10:44;15.80;99.90
22742;DHT22;11538;48.884;8.696;2022-10-31T09:13:14;15.90;99.90
22742;DHT22;11538;48.884;8.696;2022-10-31T09:15:44;16.10;99.90
22742;DHT22;11538;48.884;8.696;2022-10-31T09:18:13;16.20;99.90
22742;DHT22;11538;48.884;8.696;2022-10-31T09:20:43;16.30;99.90
22742;DHT22;11538;48.884;8.696;2022-10-31T09:23:17;16.40;99.90
22742;DHT22;11538;48.884;8.696;2022-10-31T09:25:47;16.50;99.90
22742;DHT22;11538;48.884;8.696;2022-10-31T09:28:19;16.50;99.90
22742;DHT22;11538;48.884;8.696;2022-10-31T09:30:49;16.60;99.90
22742;DHT22;11538;48.884;8.696;2022-10-31T09:33:18;16.70;99.90
22742;DHT22;11538;48.884;8.696;2022-10-31T09:35:45;16.80;99.90
22742;DHT22;11538;48.884;8.696;2022-10-31T09:38:18;16.90;99.90
22742;DHT22;11538;48.884;8.696;2022-10-31T09:41:01;16.90;99.90
22742;DHT22;11538;48.884;8.696;2022-10-31T09:43:59;17.00;99.90
22742;DHT22;11538;48.884;8.696;2022-10-31T09:52:24;17.30;99.90
22742;DHT22;11538;48.884;8.696;2022-10-31T09:55:20;17.40;99.90
22742;DHT22;11538;48.884;8.696;2022-10-31T09:57:56;17.50;99.90
22742;DHT22;11538;48.884;8.696;2022-10-31T10:00:26;17.50;99.90
22742;DHT22;11538;48.884;8.696;2022-10-31T10:02:56;17.60;99.90
22742;DHT22;11538;48.884;8.696;2022-10-31T10:05:32;17.70;99.90
22742;DHT22;11538;48.884;8.696;2022-10-31T10:08:22;17.70;99.90
22742;DHT22;11538;48.884;8.696;2022-10-31T10:11:19;17.70;99.90
22742;DHT22;11538;48.884;8.696;2022-10-31T10:20:24;17.80;99.90
22742;DHT22;11538;48.884;8.696;2022-10-31T10:26:30;17.90;99.90
22742;DHT22;11538;48.884;8.696;2022-10-31T10:29:00;18.00;99.90
22742;DHT22;11538;48.884;8.696;2022-10-31T10:31:37;18.00;99.90
22742;DHT22;11538;48.884;8.696;2022-10-31T10:37:07;18.00;99.90
22742;DHT22;11538;48.884;8.696;2022-10-31T10:39:49;18.00;99.90
22742;DHT22;11538;48.884;8.696;2022-10-31T10:42:24;18.10;99.90
22742;DHT22;11538;48.884;8.696;2022-10-31T10:45:17;18.10;99.90
22742;DHT22;11538;48.884;8.696;2022-10-31T10:48:36;18.10;99.90
22742;DHT22;11538;48.884;8.696;2022-10-31T10:51:21;18.10;99.90
22742;DHT22;11538;48.884;8.696;2022-10-31T11:00:21;18.20;99.90
22742;DHT22;11538;48.884;8.696;2022-10-31T11:02:52;18.30;99.90
22742;DHT22;11538;48.884;8.696;2022-10-31T11:05:57;18.30;99.90
22742;DHT22;11538;48.884;8.696;2022-10-31T11:08:34;18.30;99.90
22742;DHT22;11538;48.884;8.696;2022-10-31T11:11:03;18.40;99.90
22742;DHT22;11538;48.884;8.696;2022-10-31T11:13:48;18.40;99.90
22742;DHT22;11538;48.884;8.696;2022-10-31T11:19:08;18.40;99.90
22742;DHT22;11538;48.884;8.696;2022-10-31T11:21:41;18.40;99.90
22742;DHT22;11538;48.884;8.696;2022-10-31T11:24:18;18.40;99.90
22742;DHT22;11538;48.884;8.696;2022-10-31T11:26:49;18.40;99.90
22742;DHT22;11538;48.884;8.696;2022-10-31T11:29:24;18.50;99.90
22742;DHT22;11538;48.884;8.696;2022-10-31T11:31:54;18.50;99.90
22742;DHT22;11538;48.884;8.696;2022-10-31T11:34:41;18.50;99.90
22742;DHT22;11538;48.884;8.696;2022-10-31T11:37:15;18.50;99.90
22742;DHT22;11538;48.884;8.696;2022-10-31T11:39:49;18.60;99.90
22742;DHT22;11538;48.884;8.696;2022-10-31T11:42:34;18.60;99.90
22742;DHT22;11538;48.884;8.696;2022-10-31T11:45:15;18.70;99.90
22742;DHT22;11538;48.884;8.696;2022-10-31T11:48:18;18.70;99.90
22742;DHT22;11538;48.884;8.696;2022-10-31T11:50:56;18.70;99.90
22742;DHT22;11538;48.884;8.696;2022-10-31T11:53:29;18.80;99.90
22742;DHT22;11538;48.884;8.696;2022-10-31T11:58:32;18.90;99.90
22742;DHT22;11538;48.884;8.696;2022-10-31T12:00:58;18.90;99.90
22742;DHT22;11538;48.884;8.696;2022-10-31T12:03:36;19.00;99.90
22742;DHT22;11538;48.884;8.696;2022-10-31T12:06:29;19.10;99.90
22742;DHT22;11538;48.884;8.696;2022-10-31T12:09:00;19.10;99.90
22742;DHT22;11538;48.884;8.696;2022-10-31T12:14:25;19.50;99.90
22742;DHT22;11538;48.884;8.696;2022-10-31T12:17:16;19.60;99.90
22742;DHT22;11538;48.884;8.696;2022-10-31T12:20:04;19.90;99.90
22742;DHT22;11538;48.884;8.696;2022-10-31T12:26:12;20.30;99.90
22742;DHT22;11538;48.884;8.696;2022-10-31T12:28:54;20.30;99.90
22742;DHT22;11538;48.884;8.696;2022-10-31T12:37:47;20.10;99.90
22742;DHT22;11538;48.884;8.696;2022-10-31T12:40:52;20.00;99.90
22742;DHT22;11538;48.884;8.696;2022-10-31T12:44:02;20.00;99.90
22742;DHT22;11538;48.884;8.696;2022-10-31T12:55:53;19.70;99.90
22742;DHT22;11538;48.884;8.696;2022-10-31T12:58:33;19.60;99.90
22742;DHT22;11538;48.884;8.696;2022-10-31T13:04:05;19.40;99.90
22742;DHT22;11538;48.884;8.696;2022-10-31T13:06:47;19.40;99.90
22742;DHT22;11538;48.884;8.696;2022-10-31T13:09:25;19.30;99.90
22742;DHT22;11538;48.884;8.696;2022-10-31T13:12:04;19.40;99.90
22742;DHT22;11538;48.884;8.696;2022-10-31T13:14:43;19.60;99.90
22742;DHT22;11538;48.884;8.696;2022-10-31T13:17:30;20.00;99.90
22742;DHT22;11538;48.884;8.696;2022-10-31T13:20:23;20.60;99.90
22742;DHT22;11538;48.884;8.696;2022-10-31T13:23:11;21.20;99.90
22742;DHT22;11538;48.884;8.696;2022-10-31T13:26:16;21.70;99.90
22742;DHT22;11538;48.884;8.696;2022-10-31T13:31:55;22.40;99.90
22742;DHT22;11538;48.884;8.696;2022-10-31T13:34:25;22.50;99.90
22742;DHT22;11538;48.884;8.696;2022-10-31T13:42:20;22.30;99.90
22742;DHT22;11538;48.884;8.696;2022-10-31T13:44:50;22.10;99.90
22742;DHT22;11538;48.884;8.696;2022-10-31T13:47:29;21.90;99.90
22742;DHT22;11538;48.884;8.696;2022-10-31T13:50:19;21.70;99.90
22742;DHT22;11538;48.884;8.696;2022-10-31T13:52:46;21.40;99.90
22742;DHT22;11538;48.884;8.696;2022-10-31T13:58:25;21.10;99.90
22742;DHT22;11538;48.884;8.696;2022-10-31T14:01:15;21.00;99.90
22742;DHT22;11538;48.884;8.696;2022-10-31T14:03:47;20.80;99.90
22742;DHT22;11538;48.884;8.696;2022-10-31T14:06:57;20.70;99.90
22742;DHT22;11538;48.884;8.696;2022-10-31T14:09:48;20.60;99.90
22742;DHT22;11538;48.884;8.696;2022-10-31T14:12:41;20.50;99.90
22742;DHT22;11538;48.884;8.696;2022-10-31T14:15:20;20.40;99.90
22742;DHT22;11538;48.884;8.696;2022-10-31T14:20:41;20.30;99.90
22742;DHT22;11538;48.884;8.696;2022-10-31T14:31:45;20.00;99.90
22742;DHT22;11538;48.884;8.696;2022-10-31T14:37:08;19.90;99.90
22742;DHT22;11538;48.884;8.696;2022-10-31T14:43:09;19.80;99.90
22742;DHT22;11538;48.884;8.696;2022-10-31T14:51:20;19.60;99.90
22742;DHT22;11538;48.884;8.696;2022-10-31T14:53:52;19.50;99.90
22742;DHT22;11538;48.884;8.696;2022-10-31T14:56:26;19.50;99.90
22742;DHT22;11538;48.884;8.696;2022-10-31T14:58:58;19.40;99.90
22742;DHT22;11538;48.884;8.696;2022-10-31T15:01:30;19.40;99.90
22742;DHT22;11538;48.884;8.696;2022-10-31T15:04:25;19.30;99.90
22742;DHT22;11538;48.884;8.696;2022-10-31T15:07:13;19.20;99.90
22742;DHT22;11538;48.884;8.696;2022-10-31T15:10:02;19.10;99.90
22742;DHT22;11538;48.884;8.696;2022-10-31T15:12:35;19.10;99.90
22742;DHT22;11538;48.884;8.696;2022-10-31T15:15:24;19.00;99.90
22742;DHT22;11538;48.884;8.696;2022-10-31T15:17:58;19.00;99.90
22742;DHT22;11538;48.884;8.696;2022-10-31T15:20:43;18.90;99.90
22742;DHT22;11538;48.884;8.696;2022-10-31T15:23:17;18.90;99.90
22742;DHT22;11538;48.884;8.696;2022-10-31T15:25:49;18.90;99.90
22742;DHT22;11538;48.884;8.696;2022-10-31T15:28:23;18.80;99.90
22742;DHT22;11538;48.884;8.696;2022-10-31T15:30:59;18.70;99.90
22742;DHT22;11538;48.884;8.696;2022-10-31T15:33:30;18.70;99.90
22742;DHT22;11538;48.884;8.696;2022-10-31T15:36:21;18.60;99.90
22742;DHT22;11538;48.884;8.696;2022-10-31T15:38:58;18.50;99.90
22742;DHT22;11538;48.884;8.696;2022-10-31T15:41:33;18.40;99.90
22742;DHT22;11538;48.884;8.696;2022-10-31T15:44:18;18.40;99.90
22742;DHT22;11538;48.884;8.696;2022-10-31T15:47:01;18.30;99.90
22742;DHT22;11538;48.884;8.696;2022-10-31T15:49:34;18.20;99.90
22742;DHT22;11538;48.884;8.696;2022-10-31T15:55:18;18.00;99.90
22742;DHT22;11538;48.884;8.696;2022-10-31T15:57:50;18.00;99.90
22742;DHT22;11538;48.884;8.696;2022-10-31T16:00:29;18.00;99.90
22742;DHT22;11538;48.884;8.696;2022-10-31T16:08:48;17.80;99.90
22742;DHT22;11538;48.884;8.696;2022-10-31T16:14:04;17.70;99.90
22742;DHT22;11538;48.884;8.696;2022-10-31T16:16:48;17.60;99.90
22742;DHT22;11538;48.884;8.696;2022-10-31T16:19:23;17.50;99.90
22742;DHT22;11538;48.884;8.696;2022-10-31T16:21:55;17.40;99.90
22742;DHT22;11538;48.884;8.696;2022-10-31T16:25:19;17.40;99.90
22742;DHT22;11538;48.884;8.696;2022-10-31T16:27:28;17.30;99.90
22742;DHT22;11538;48.884;8.696;2022-10-31T16:29:58;17.20;99.90
22742;DHT22;11538;48.884;8.696;2022-10-31T16:32:51;17.10;99.90
22742;DHT22;11538;48.884;8.696;2022-10-31T16:35:39;17.10;99.90
22742;DHT22;11538;48.884;8.696;2022-10-31T16:38:07;17.10;99.90
22742;DHT22;11538;48.884;8.696;2022-10-31T16:40:37;17.00;99.90
22742;DHT22;11538;48.884;8.696;2022-10-31T16:43:08;17.00;99.90
22742;DHT22;11538;48.884;8.696;2022-10-31T16:45:43;17.00;99.90
22742;DHT22;11538;48.884;8.696;2022-10-31T16:48:14;17.00;99.90
22742;DHT22;11538;48.884;8.696;2022-10-31T16:50:43;17.00;99.90
22742;DHT22;11538;48.884;8.696;2022-10-31T16:53:10;17.10;99.90
22742;DHT22;11538;48.884;8.696;2022-10-31T16:55:54;17.00;99.90
22742;DHT22;11538;48.884;8.696;2022-10-31T16:58:25;17.00;99.90
22742;DHT22;11538;48.884;8.696;2022-10-31T17:00:56;17.00;99.90
22742;DHT22;11538;48.884;8.696;2022-10-31T17:03:23;16.90;99.90
22742;DHT22;11538;48.884;8.696;2022-10-31T17:05:50;16.90;99.90
22742;DHT22;11538;48.884;8.696;2022-10-31T17:08:18;16.90;99.90
22742;DHT22;11538;48.884;8.696;2022-10-31T17:10:46;16.90;99.90
22742;DHT22;11538;48.884;8.696;2022-10-31T17:13:20;16.90;99.90
22742;DHT22;11538;48.884;8.696;2022-10-31T17:15:54;16.80;99.90
22742;DHT22;11538;48.884;8.696;2022-10-31T17:18:23;16.90;99.90
22742;DHT22;11538;48.884;8.696;2022-10-31T17:20:59;16.80;99.90
22742;DHT22;11538;48.884;8.696;2022-10-31T17:23:28;16.80;99.90
22742;DHT22;11538;48.884;8.696;2022-10-31T17:25:56;16.80;99.90
22742;DHT22;11538;48.884;8.696;2022-10-31T17:28:23;16.80;99.90
22742;DHT22;11538;48.884;8.696;2022-10-31T17:30:54;16.80;99.90
22742;DHT22;11538;48.884;8.696;2022-10-31T17:33:23;16.80;99.90
22742;DHT22;11538;48.884;8.696;2022-10-31T17:35:51;16.80;99.90
22742;DHT22;11538;48.884;8.696;2022-10-31T17:38:18;16.80;99.90
22742;DHT22;11538;48.884;8.696;2022-10-31T17:40:45;16.70;99.90
22742;DHT22;11538;48.884;8.696;2022-10-31T17:43:14;16.70;99.90
22742;DHT22;11538;48.884;8.696;2022-10-31T17:45:41;16.70;99.90
22742;DHT22;11538;48.884;8.696;2022-10-31T17:48:11;16.70;99.90
22742;DHT22;11538;48.884;8.696;2022-10-31T17:50:38;16.60;99.90
22742;DHT22;11538;48.884;8.696;2022-10-31T17:53:05;16.60;99.90
22742;DHT22;11538;48.884;8.696;2022-10-31T17:55:32;16.60;99.90
22742;DHT22;11538;48.884;8.696;2022-10-31T17:58:03;16.60;99.90
22742;DHT22;11538;48.884;8.696;2022-10-31T18:00:31;16.60;99.90
22742;DHT22;11538;48.884;8.696;2022-10-31T18:03:00;16.50;99.90
22742;DHT22;11538;48.884;8.696;2022-10-31T18:05:29;16.50;99.90
22742;DHT22;11538;48.884;8.696;2022-10-31T18:07:56;16.50;99.90
22742;DHT22;11538;48.884;8.696;2022-10-31T18:10:29;16.50;99.90
22742;DHT22;11538;48.884;8.696;2022-10-31T18:12:56;16.40;99.90
22742;DHT22;11538;48.884;8.696;2022-10-31T18:15:23;16.40;99.90
22742;DHT22;11538;48.884;8.696;2022-10-31T18:17:49;16.30;99.90
22742;DHT22;11538;48.884;8.696;2022-10-31T18:20:16;16.30;99.90
22742;DHT22;11538;48.884;8.696;2022-10-31T18:22:43;16.30;99.90